createdAt,value
2022-12-26T00:00:02.751Z,22.33
2022-12-26T00:01:03.413Z,22.36
2022-12-26T00:02:04.041Z,22.33
2022-12-26T00:03:04.745Z,22.36
2022-12-26T00:04:06.297Z,22.44
2022-12-26T00:05:07.808Z,22.39
2022-12-26T00:06:08.562Z,22.38
2022-12-26T00:07:09.204Z,22.41
2022-12-26T00:08:09.807Z,22.36
2022-12-26T00:09:10.404Z,22.43
2022-12-26T00:10:11.069Z,22.44
2022-12-26T00:11:11.679Z,22.39
2022-12-26T00:12:12.279Z,22.44
2022-12-26T00:13:38.978Z,22.41
2022-12-26T00:14:14.482Z,22.44
2022-12-26T00:15:15.065Z,22.41
2022-12-26T00:16:15.697Z,22.47
2022-12-26T00:17:16.302Z,22.35
2022-12-26T00:18:16.903Z,22.28
2022-12-26T00:19:17.584Z,22.26
2022-12-26T00:20:18.169Z,22.25
2022-12-26T00:21:18.822Z,22.25
2022-12-26T00:22:19.424Z,22.11
2022-12-26T00:23:20.022Z,22.10
2022-12-26T00:24:20.619Z,21.95
2022-12-26T00:25:21.268Z,21.96
2022-12-26T00:26:21.875Z,21.91
2022-12-26T00:27:22.481Z,21.89
2022-12-26T00:28:23.084Z,21.92
2022-12-26T00:29:23.675Z,21.82
2022-12-26T00:30:24.440Z,21.76
2022-12-26T00:31:25.173Z,21.76
2022-12-26T00:32:26.785Z,21.70
2022-12-26T00:33:28.198Z,21.61
2022-12-26T00:34:28.815Z,21.64
2022-12-26T00:35:29.411Z,21.61
2022-12-26T00:36:30.171Z,21.57
2022-12-26T00:37:30.760Z,21.54
2022-12-26T00:38:31.411Z,21.55
2022-12-26T00:39:32.012Z,21.45
2022-12-26T00:40:32.672Z,21.43
2022-12-26T00:41:33.283Z,21.36
2022-12-26T00:42:33.883Z,21.35
2022-12-26T00:43:34.483Z,21.32
2022-12-26T00:44:35.080Z,21.27
2022-12-26T00:45:35.676Z,21.27
2022-12-26T00:46:36.348Z,21.33
2022-12-26T00:47:37.022Z,21.29
2022-12-26T00:48:37.638Z,21.15
2022-12-26T00:50:11.605Z,21.20
2022-12-26T00:50:38.890Z,21.15
2022-12-26T00:51:39.510Z,21.15
2022-12-26T00:52:40.115Z,21.17
2022-12-26T00:53:40.712Z,21.14
2022-12-26T00:54:41.606Z,21.14
2022-12-26T00:55:42.228Z,21.15
2022-12-26T00:56:42.855Z,21.11
2022-12-26T00:57:43.452Z,21.09
2022-12-26T00:58:44.056Z,21.03
2022-12-26T00:59:44.653Z,21.07
2022-12-26T01:00:45.339Z,21.07
2022-12-26T01:01:46.103Z,21.06
2022-12-26T01:02:46.979Z,21.03
2022-12-26T01:03:47.696Z,20.99
2022-12-26T01:04:48.291Z,21.02
2022-12-26T01:05:48.887Z,21.02
2022-12-26T01:06:49.501Z,20.99
2022-12-26T01:08:21.212Z,21.03
2022-12-26T01:08:51.681Z,21.00
2022-12-26T01:09:52.277Z,20.96
2022-12-26T01:10:52.881Z,20.95
2022-12-26T01:11:53.547Z,20.90
2022-12-26T01:12:54.151Z,20.88
2022-12-26T01:13:54.743Z,20.88
2022-12-26T01:14:55.348Z,20.92
2022-12-26T01:15:55.968Z,20.87
2022-12-26T01:16:56.575Z,20.82
2022-12-26T01:17:57.191Z,20.81
2022-12-26T01:18:57.795Z,20.75
2022-12-26T01:19:58.386Z,20.78
2022-12-26T01:20:58.988Z,20.78
2022-12-26T01:21:59.589Z,20.77
2022-12-26T01:23:00.185Z,20.77
2022-12-26T01:24:00.789Z,20.75
2022-12-26T01:25:01.387Z,20.74
2022-12-26T01:26:17.049Z,20.72
2022-12-26T01:27:03.578Z,20.69
2022-12-26T01:28:04.184Z,20.66
2022-12-26T01:29:04.824Z,20.62
2022-12-26T01:30:05.419Z,20.69
2022-12-26T01:31:06.021Z,20.59
2022-12-26T01:32:07.614Z,20.65
2022-12-26T01:33:08.231Z,20.59
2022-12-26T01:34:08.979Z,20.63
2022-12-26T01:35:09.577Z,20.60
2022-12-26T01:36:10.191Z,20.58
2022-12-26T01:37:10.776Z,20.65
2022-12-26T01:38:11.367Z,20.60
2022-12-26T01:39:12.124Z,20.59
2022-12-26T01:40:12.712Z,20.55
2022-12-26T01:41:13.317Z,20.55
2022-12-26T01:42:13.959Z,20.52
2022-12-26T01:43:14.560Z,20.51
2022-12-26T01:44:15.153Z,20.55
2022-12-26T01:45:15.756Z,20.44
2022-12-26T01:46:16.496Z,20.51
2022-12-26T01:47:17.184Z,20.50
2022-12-26T01:48:17.779Z,20.48
2022-12-26T01:49:18.390Z,20.41
2022-12-26T01:50:18.987Z,20.44
2022-12-26T01:51:19.594Z,20.43
2022-12-26T01:52:20.186Z,20.44
2022-12-26T01:53:20.785Z,20.39
2022-12-26T01:54:37.457Z,20.43
2022-12-26T01:55:22.975Z,20.40
2022-12-26T01:56:23.571Z,20.41
2022-12-26T01:57:24.172Z,20.37
2022-12-26T01:58:24.766Z,20.31
2022-12-26T01:59:25.367Z,20.34
2022-12-26T02:00:25.962Z,20.29
2022-12-26T02:01:27.494Z,20.39
2022-12-26T02:02:28.320Z,20.32
2022-12-26T02:03:29.082Z,20.32
2022-12-26T02:04:29.679Z,20.31
2022-12-26T02:05:30.356Z,20.34
2022-12-26T02:06:30.940Z,20.37
2022-12-26T02:07:32.395Z,20.26
2022-12-26T02:08:33.087Z,20.26
2022-12-26T02:09:33.679Z,20.25
2022-12-26T02:10:34.276Z,20.32
2022-12-26T02:11:34.882Z,20.29
2022-12-26T02:12:38.881Z,20.22
2022-12-26T02:13:37.078Z,20.26
2022-12-26T02:14:37.667Z,20.22
2022-12-26T02:15:38.269Z,20.25
2022-12-26T02:16:38.926Z,20.22
2022-12-26T02:17:39.544Z,20.16
2022-12-26T02:18:40.133Z,20.14
2022-12-26T02:19:40.731Z,20.16
2022-12-26T02:20:41.337Z,20.18
2022-12-26T02:21:41.936Z,20.18
2022-12-26T02:22:42.518Z,20.19
2022-12-26T02:23:43.125Z,20.24
2022-12-26T02:24:43.716Z,20.19
2022-12-26T02:25:44.323Z,20.24
2022-12-26T02:26:44.910Z,20.18
2022-12-26T02:27:45.579Z,20.14
2022-12-26T02:28:46.171Z,20.18
2022-12-26T02:29:46.773Z,20.16
2022-12-26T02:30:47.374Z,20.16
2022-12-26T02:31:48.013Z,20.07
2022-12-26T02:32:48.727Z,20.06
2022-12-26T02:33:49.379Z,20.18
2022-12-26T02:34:50.039Z,20.16
2022-12-26T02:35:50.689Z,20.16
2022-12-26T02:36:51.279Z,20.04
2022-12-26T02:37:51.892Z,20.14
2022-12-26T02:38:52.473Z,20.07
2022-12-26T02:39:53.134Z,20.04
2022-12-26T02:40:54.519Z,20.07
2022-12-26T02:41:55.133Z,20.11
2022-12-26T02:42:55.715Z,20.10
2022-12-26T02:43:56.320Z,20.02
2022-12-26T02:44:56.907Z,20.09
2022-12-26T02:45:57.557Z,20.04
2022-12-26T02:46:58.183Z,20.07
2022-12-26T02:47:58.846Z,20.09
2022-12-26T02:48:59.450Z,20.02
2022-12-26T02:50:00.034Z,20.06
2022-12-26T02:51:00.643Z,20.10
2022-12-26T02:52:01.310Z,20.02
2022-12-26T02:53:01.909Z,20.02
2022-12-26T02:54:02.507Z,20.09
2022-12-26T02:55:03.173Z,20.00
2022-12-26T02:56:03.842Z,20.02
2022-12-26T02:57:04.470Z,20.02
2022-12-26T02:58:05.075Z,19.92
2022-12-26T02:59:05.741Z,20.04
2022-12-26T03:00:06.336Z,20.02
2022-12-26T03:01:07.144Z,20.00
2022-12-26T03:02:07.902Z,19.91
2022-12-26T03:03:08.747Z,19.96
2022-12-26T03:04:09.414Z,19.96
2022-12-26T03:05:10.012Z,19.92
2022-12-26T03:06:10.605Z,19.92
2022-12-26T03:07:11.207Z,19.92
2022-12-26T03:08:11.798Z,19.99
2022-12-26T03:09:12.405Z,19.99
2022-12-26T03:10:12.998Z,20.00
2022-12-26T03:11:13.650Z,19.92
2022-12-26T03:12:14.244Z,19.96
2022-12-26T03:13:14.852Z,19.94
2022-12-26T03:14:15.440Z,19.95
2022-12-26T03:15:16.049Z,20.00
2022-12-26T03:16:16.701Z,19.94
2022-12-26T03:17:17.292Z,19.96
2022-12-26T03:18:17.887Z,19.94
2022-12-26T03:19:18.493Z,19.94
2022-12-26T03:20:19.088Z,19.95
2022-12-26T03:21:19.686Z,19.94
2022-12-26T03:22:20.278Z,19.92
2022-12-26T03:23:20.883Z,19.91
2022-12-26T03:24:21.473Z,19.92
2022-12-26T03:25:22.079Z,19.94
2022-12-26T03:26:22.681Z,19.85
2022-12-26T03:27:23.341Z,19.88
2022-12-26T03:28:23.932Z,19.89
2022-12-26T03:29:24.544Z,19.92
2022-12-26T03:30:25.178Z,19.91
2022-12-26T03:31:25.776Z,19.91
2022-12-26T03:32:26.372Z,19.84
2022-12-26T03:33:26.970Z,19.86
2022-12-26T03:34:27.636Z,19.94
2022-12-26T03:35:28.239Z,19.92
2022-12-26T03:36:28.953Z,19.91
2022-12-26T03:37:48.405Z,19.89
2022-12-26T03:38:31.991Z,19.88
2022-12-26T03:39:32.593Z,19.88
2022-12-26T03:40:33.184Z,19.92
2022-12-26T03:41:33.783Z,19.89
2022-12-26T03:42:34.379Z,19.88
2022-12-26T03:43:34.981Z,19.82
2022-12-26T03:44:35.580Z,19.88
2022-12-26T03:45:36.277Z,19.89
2022-12-26T03:46:36.941Z,19.89
2022-12-26T03:47:37.558Z,19.89
2022-12-26T03:48:38.155Z,19.88
2022-12-26T03:49:38.754Z,19.81
2022-12-26T03:50:39.352Z,19.85
2022-12-26T03:51:39.952Z,19.86
2022-12-26T03:52:40.543Z,19.88
2022-12-26T03:53:41.205Z,19.84
2022-12-26T03:54:41.800Z,19.85
2022-12-26T03:55:42.461Z,19.85
2022-12-26T03:56:43.046Z,19.86
2022-12-26T03:57:43.646Z,19.81
2022-12-26T03:58:44.240Z,19.86
2022-12-26T03:59:44.879Z,19.86
2022-12-26T04:00:45.503Z,19.85
2022-12-26T04:01:46.204Z,19.82
2022-12-26T04:02:46.873Z,19.86
2022-12-26T04:03:47.540Z,19.86
2022-12-26T04:04:48.137Z,19.82
2022-12-26T04:05:48.750Z,19.82
2022-12-26T04:06:49.367Z,19.88
2022-12-26T04:07:58.200Z,19.79
2022-12-26T04:08:51.557Z,19.86
2022-12-26T04:09:52.159Z,19.81
2022-12-26T04:10:52.750Z,19.85
2022-12-26T04:11:53.352Z,19.76
2022-12-26T04:12:53.945Z,19.85
2022-12-26T04:13:54.549Z,19.82
2022-12-26T04:14:55.144Z,19.74
2022-12-26T04:15:55.795Z,19.82
2022-12-26T04:16:56.431Z,19.79
2022-12-26T04:17:57.047Z,19.79
2022-12-26T04:18:57.640Z,19.81
2022-12-26T04:19:58.260Z,19.74
2022-12-26T04:20:58.846Z,19.77
2022-12-26T04:21:59.450Z,19.76
2022-12-26T04:23:00.202Z,19.85
2022-12-26T04:24:00.766Z,19.84
2022-12-26T04:25:01.351Z,19.76
2022-12-26T04:26:01.968Z,19.74
2022-12-26T04:27:02.551Z,19.73
2022-12-26T04:28:03.196Z,19.81
2022-12-26T04:29:03.801Z,19.84
2022-12-26T04:30:04.405Z,19.76
2022-12-26T04:31:05.046Z,19.71
2022-12-26T04:32:05.626Z,19.76
2022-12-26T04:33:06.224Z,19.74
2022-12-26T04:34:06.821Z,19.74
2022-12-26T04:35:07.417Z,19.74
2022-12-26T04:36:08.019Z,19.76
2022-12-26T04:37:08.612Z,19.81
2022-12-26T04:38:09.215Z,19.73
2022-12-26T04:39:09.810Z,19.76
2022-12-26T04:40:10.453Z,19.73
2022-12-26T04:41:11.202Z,19.74
2022-12-26T04:42:11.813Z,19.76
2022-12-26T04:43:49.125Z,19.79
2022-12-26T04:44:14.847Z,19.77
2022-12-26T04:45:15.520Z,19.67
2022-12-26T04:46:16.176Z,19.73
2022-12-26T04:47:16.786Z,19.67
2022-12-26T04:48:17.546Z,19.76
2022-12-26T04:49:18.134Z,19.74
2022-12-26T04:50:18.746Z,19.66
2022-12-26T04:51:19.407Z,19.70
2022-12-26T04:52:20.071Z,19.76
2022-12-26T04:53:20.671Z,19.67
2022-12-26T04:54:21.270Z,19.67
2022-12-26T04:55:21.936Z,19.74
2022-12-26T04:56:22.537Z,19.67
2022-12-26T04:57:23.124Z,19.74
2022-12-26T04:58:23.729Z,19.69
2022-12-26T04:59:24.333Z,19.71
2022-12-26T05:00:24.991Z,19.77
2022-12-26T05:01:26.475Z,19.67
2022-12-26T05:02:27.428Z,19.67
2022-12-26T05:03:28.230Z,19.71
2022-12-26T05:04:28.835Z,19.64
2022-12-26T05:05:29.422Z,19.70
2022-12-26T05:06:30.874Z,19.71
2022-12-26T05:07:31.478Z,19.70
2022-12-26T05:08:32.070Z,19.77
2022-12-26T05:09:32.660Z,19.63
2022-12-26T05:10:33.266Z,19.64
2022-12-26T05:11:33.860Z,19.70
2022-12-26T05:12:34.477Z,19.63
2022-12-26T05:13:35.056Z,19.71
2022-12-26T05:14:35.699Z,19.73
2022-12-26T05:15:36.327Z,19.62
2022-12-26T05:16:36.926Z,19.64
2022-12-26T05:17:37.524Z,19.67
2022-12-26T05:18:38.125Z,19.73
2022-12-26T05:19:38.714Z,19.67
2022-12-26T05:20:39.317Z,19.64
2022-12-26T05:21:39.915Z,19.70
2022-12-26T05:22:40.514Z,19.66
2022-12-26T05:23:41.112Z,19.67
2022-12-26T05:24:41.713Z,19.67
2022-12-26T05:25:42.389Z,19.66
2022-12-26T05:26:43.164Z,19.67
2022-12-26T05:27:43.855Z,19.63
2022-12-26T05:28:44.547Z,19.63
2022-12-26T05:29:45.141Z,19.69
2022-12-26T05:30:45.773Z,19.66
2022-12-26T05:31:46.420Z,19.69
2022-12-26T05:32:47.031Z,19.64
2022-12-26T05:33:47.700Z,19.69
2022-12-26T05:34:48.391Z,19.70
2022-12-26T05:35:49.029Z,19.66
2022-12-26T05:36:49.629Z,19.64
2022-12-26T05:37:50.291Z,19.67
2022-12-26T05:38:50.892Z,19.58
2022-12-26T05:39:51.490Z,19.66
2022-12-26T05:40:52.094Z,19.69
2022-12-26T05:41:52.690Z,19.67
2022-12-26T05:42:53.306Z,19.62
2022-12-26T05:43:53.910Z,19.62
2022-12-26T05:44:54.505Z,19.69
2022-12-26T05:45:55.120Z,19.67
2022-12-26T05:46:55.756Z,19.54
2022-12-26T05:47:56.403Z,19.62
2022-12-26T05:48:57.161Z,19.62
2022-12-26T05:49:57.760Z,19.48
2022-12-26T05:50:58.364Z,19.64
2022-12-26T05:51:59.078Z,19.54
2022-12-26T05:53:00.480Z,19.59
2022-12-26T05:54:01.073Z,19.62
2022-12-26T05:55:01.741Z,19.63
2022-12-26T05:56:02.342Z,19.63
2022-12-26T05:57:02.938Z,19.59
2022-12-26T05:58:03.530Z,19.56
2022-12-26T05:59:04.131Z,19.58
2022-12-26T06:00:04.799Z,19.63
2022-12-26T06:01:05.390Z,19.59
2022-12-26T06:02:06.069Z,19.63
2022-12-26T06:03:06.858Z,19.59
2022-12-26T06:04:07.445Z,19.64
2022-12-26T06:05:08.044Z,19.59
2022-12-26T06:06:08.665Z,19.55
2022-12-26T06:07:09.266Z,19.64
2022-12-26T06:08:09.897Z,19.62
2022-12-26T06:09:10.504Z,19.56
2022-12-26T06:10:11.097Z,19.54
2022-12-26T06:11:11.709Z,19.59
2022-12-26T06:12:12.310Z,19.59
2022-12-26T06:13:12.909Z,19.58
2022-12-26T06:14:13.502Z,19.59
2022-12-26T06:15:14.965Z,19.54
2022-12-26T06:16:15.579Z,19.54
2022-12-26T06:17:16.171Z,19.59
2022-12-26T06:18:16.839Z,19.55
2022-12-26T06:19:17.447Z,19.56
2022-12-26T06:20:18.110Z,19.55
2022-12-26T06:21:18.711Z,19.55
2022-12-26T06:22:19.316Z,19.58
2022-12-26T06:23:19.914Z,19.55
2022-12-26T06:24:20.501Z,19.55
2022-12-26T06:25:21.103Z,19.47
2022-12-26T06:26:21.694Z,19.41
2022-12-26T06:27:22.298Z,19.55
2022-12-26T06:28:22.903Z,19.41
2022-12-26T06:29:23.497Z,19.48
2022-12-26T06:30:24.946Z,19.51
2022-12-26T06:31:25.852Z,19.41
2022-12-26T06:32:26.554Z,19.41
2022-12-26T06:33:27.150Z,19.51
2022-12-26T06:34:27.790Z,19.49
2022-12-26T06:35:28.411Z,19.48
2022-12-26T06:36:29.017Z,19.54
2022-12-26T06:37:29.670Z,19.44
2022-12-26T06:38:30.275Z,19.49
2022-12-26T06:39:31.718Z,19.47
2022-12-26T06:40:32.314Z,19.48
2022-12-26T06:41:32.917Z,19.45
2022-12-26T06:42:33.522Z,19.52
2022-12-26T06:43:34.111Z,19.47
2022-12-26T06:44:34.755Z,19.48
2022-12-26T06:45:35.352Z,19.45
2022-12-26T06:46:35.976Z,19.49
2022-12-26T06:47:36.591Z,19.49
2022-12-26T06:48:37.186Z,19.52
2022-12-26T06:49:37.786Z,19.48
2022-12-26T06:50:38.381Z,19.44
2022-12-26T06:51:39.067Z,19.45
2022-12-26T06:52:39.702Z,19.47
2022-12-26T06:53:40.476Z,19.48
2022-12-26T06:54:41.115Z,19.49
2022-12-26T06:55:41.719Z,19.48
2022-12-26T06:56:42.318Z,19.54
2022-12-26T06:57:42.939Z,19.45
2022-12-26T06:58:43.522Z,19.47
2022-12-26T06:59:44.124Z,19.51
2022-12-26T07:00:44.795Z,19.44
2022-12-26T07:01:45.613Z,19.48
2022-12-26T07:02:46.456Z,19.41
2022-12-26T07:03:51.681Z,19.51
2022-12-26T07:04:47.847Z,19.51
2022-12-26T07:05:48.451Z,19.48
2022-12-26T07:06:49.052Z,19.45
2022-12-26T07:07:49.644Z,19.48
2022-12-26T07:08:50.319Z,19.49
2022-12-26T07:09:50.908Z,19.45
2022-12-26T07:10:51.510Z,19.44
2022-12-26T07:11:52.116Z,19.45
2022-12-26T07:12:52.713Z,19.45
2022-12-26T07:13:53.317Z,19.47
2022-12-26T07:14:59.692Z,19.48
2022-12-26T07:15:55.605Z,19.40
2022-12-26T07:16:56.285Z,19.47
2022-12-26T07:17:56.954Z,19.45
2022-12-26T07:18:57.546Z,19.47
2022-12-26T07:19:58.149Z,19.48
2022-12-26T07:20:58.747Z,19.45
2022-12-26T07:21:59.344Z,19.47
2022-12-26T07:22:59.946Z,19.47
2022-12-26T07:24:00.541Z,19.45
2022-12-26T07:25:01.152Z,19.45
2022-12-26T07:26:01.745Z,19.44
2022-12-26T07:27:02.340Z,19.44
2022-12-26T07:28:02.930Z,19.44
2022-12-26T07:29:03.538Z,19.47
2022-12-26T07:30:04.162Z,19.47
2022-12-26T07:31:04.751Z,19.40
2022-12-26T07:32:05.385Z,19.45
2022-12-26T07:33:06.081Z,19.47
2022-12-26T07:34:07.529Z,19.44
2022-12-26T07:35:08.200Z,19.44
2022-12-26T07:36:08.785Z,19.41
2022-12-26T07:37:09.492Z,19.44
2022-12-26T07:38:10.086Z,19.40
2022-12-26T07:39:10.687Z,19.39
2022-12-26T07:40:11.284Z,19.40
2022-12-26T07:41:11.880Z,19.40
2022-12-26T07:42:12.473Z,19.44
2022-12-26T07:43:13.074Z,19.40
2022-12-26T07:44:13.822Z,19.44
2022-12-26T07:45:14.427Z,19.44
2022-12-26T07:46:15.036Z,19.36
2022-12-26T07:47:15.669Z,19.45
2022-12-26T07:48:16.264Z,19.47
2022-12-26T07:49:16.973Z,19.41
2022-12-26T07:50:17.570Z,19.40
2022-12-26T07:51:18.181Z,19.44
2022-12-26T07:52:18.787Z,19.36
2022-12-26T07:53:19.385Z,19.41
2022-12-26T07:54:20.044Z,19.44
2022-12-26T07:55:20.646Z,19.41
2022-12-26T07:56:21.288Z,19.39
2022-12-26T07:57:47.343Z,19.40
2022-12-26T07:58:23.430Z,19.37
2022-12-26T07:59:24.830Z,19.34
2022-12-26T08:00:25.436Z,19.39
2022-12-26T08:01:26.179Z,19.36
2022-12-26T08:02:27.008Z,19.37
2022-12-26T08:03:27.839Z,19.41
2022-12-26T08:04:28.440Z,19.31
2022-12-26T08:05:29.040Z,19.41
2022-12-26T08:06:29.662Z,19.36
2022-12-26T08:07:30.243Z,19.36
2022-12-26T08:08:30.835Z,19.44
2022-12-26T08:09:31.449Z,19.39
2022-12-26T08:10:32.118Z,19.33
2022-12-26T08:11:32.714Z,19.39
2022-12-26T08:12:33.320Z,19.36
2022-12-26T08:13:34.304Z,19.44
2022-12-26T08:14:34.865Z,19.41
2022-12-26T08:15:35.462Z,19.41
2022-12-26T08:16:36.110Z,19.39
2022-12-26T08:17:36.747Z,19.36
2022-12-26T08:18:37.337Z,19.37
2022-12-26T08:19:37.941Z,19.24
2022-12-26T08:20:38.536Z,19.36
2022-12-26T08:21:39.143Z,19.27
2022-12-26T08:22:39.806Z,19.33
2022-12-26T08:23:40.469Z,19.30
2022-12-26T08:24:41.061Z,19.26
2022-12-26T08:25:41.672Z,19.26
2022-12-26T08:26:42.327Z,19.34
2022-12-26T08:27:42.930Z,19.30
2022-12-26T08:28:43.524Z,19.24
2022-12-26T08:29:44.128Z,19.39
2022-12-26T08:30:44.793Z,19.34
2022-12-26T08:31:45.398Z,19.31
2022-12-26T08:32:46.460Z,19.33
2022-12-26T08:33:47.318Z,19.30
2022-12-26T08:34:47.953Z,19.27
2022-12-26T08:35:48.555Z,19.26
2022-12-26T08:36:50.005Z,19.26
2022-12-26T08:37:50.692Z,19.26
2022-12-26T08:38:51.313Z,19.29
2022-12-26T08:39:51.917Z,19.31
2022-12-26T08:40:52.513Z,19.26
2022-12-26T08:41:53.112Z,19.31
2022-12-26T08:43:12.048Z,19.29
2022-12-26T08:44:56.887Z,19.31
2022-12-26T08:45:57.553Z,19.37
2022-12-26T08:46:58.169Z,19.36
2022-12-26T08:47:58.773Z,19.31
2022-12-26T08:48:59.415Z,19.26
2022-12-26T08:50:00.163Z,19.26
2022-12-26T08:51:01.492Z,19.34
2022-12-26T08:52:02.096Z,19.36
2022-12-26T08:53:02.686Z,19.31
2022-12-26T08:54:03.292Z,19.24
2022-12-26T08:55:03.946Z,19.31
2022-12-26T08:56:04.536Z,19.24
2022-12-26T08:57:05.126Z,19.26
2022-12-26T08:58:05.749Z,19.27
2022-12-26T08:59:06.432Z,19.24
2022-12-26T09:00:07.871Z,19.34
2022-12-26T09:01:08.653Z,19.31
2022-12-26T09:02:09.465Z,19.30
2022-12-26T09:03:10.154Z,19.22
2022-12-26T09:04:10.735Z,19.36
2022-12-26T09:05:12.031Z,19.29
2022-12-26T09:06:12.631Z,19.27
2022-12-26T09:07:13.234Z,19.30
2022-12-26T09:08:13.826Z,19.22
2022-12-26T09:09:14.425Z,19.31
2022-12-26T09:10:15.023Z,19.22
2022-12-26T09:11:15.615Z,19.26
2022-12-26T09:12:17.015Z,19.24
2022-12-26T09:13:17.609Z,19.27
2022-12-26T09:14:18.209Z,19.31
2022-12-26T09:15:18.806Z,19.31
2022-12-26T09:16:19.474Z,19.30
2022-12-26T09:17:20.224Z,19.24
2022-12-26T09:18:20.833Z,19.22
2022-12-26T09:19:21.427Z,19.24
2022-12-26T09:20:22.027Z,19.22
2022-12-26T09:21:22.632Z,19.34
2022-12-26T09:22:23.224Z,19.26
2022-12-26T09:23:23.816Z,19.31
2022-12-26T09:24:24.417Z,19.31
2022-12-26T09:25:25.026Z,19.27
2022-12-26T09:26:25.612Z,19.26
2022-12-26T09:27:26.203Z,19.21
2022-12-26T09:28:26.804Z,19.24
2022-12-26T09:29:27.407Z,19.34
2022-12-26T09:30:28.005Z,19.29
2022-12-26T09:31:28.614Z,19.26
2022-12-26T09:32:30.007Z,19.24
2022-12-26T09:33:30.606Z,19.26
2022-12-26T09:34:31.201Z,19.29
2022-12-26T09:35:31.801Z,19.21
2022-12-26T09:36:32.464Z,19.18
2022-12-26T09:37:33.056Z,19.19
2022-12-26T09:38:33.661Z,19.16
2022-12-26T09:39:35.112Z,19.24
2022-12-26T09:40:35.707Z,19.26
2022-12-26T09:41:36.318Z,19.24
2022-12-26T09:42:37.695Z,19.22
2022-12-26T09:43:38.290Z,19.26
2022-12-26T09:44:38.893Z,19.15
2022-12-26T09:45:39.497Z,19.22
2022-12-26T09:46:40.090Z,19.21
2022-12-26T09:47:40.696Z,19.29
2022-12-26T09:48:41.852Z,19.16
2022-12-26T09:49:42.445Z,19.21
2022-12-26T09:50:43.462Z,19.21
2022-12-26T09:51:44.178Z,19.21
2022-12-26T09:52:44.784Z,19.24
2022-12-26T09:53:45.372Z,19.29
2022-12-26T09:54:45.993Z,19.19
2022-12-26T09:55:47.459Z,19.30
2022-12-26T09:57:05.301Z,19.21
2022-12-26T09:57:49.674Z,19.22
2022-12-26T09:58:50.283Z,19.33
2022-12-26T09:59:50.874Z,19.31
2022-12-26T10:00:51.626Z,19.22
2022-12-26T10:01:52.269Z,19.31
2022-12-26T10:02:52.887Z,19.31
2022-12-26T10:03:53.482Z,19.22
2022-12-26T10:04:54.107Z,19.33
2022-12-26T10:05:54.718Z,19.31
2022-12-26T10:06:55.319Z,19.31
2022-12-26T10:07:55.915Z,19.33
2022-12-26T10:08:56.972Z,19.30
2022-12-26T10:09:57.569Z,19.26
2022-12-26T10:10:58.161Z,19.33
2022-12-26T10:11:58.751Z,19.27
2022-12-26T10:12:59.353Z,19.39
2022-12-26T10:13:59.945Z,19.33
2022-12-26T10:15:01.540Z,19.27
2022-12-26T10:16:02.180Z,19.22
2022-12-26T10:17:02.768Z,19.40
2022-12-26T10:18:03.359Z,19.30
2022-12-26T10:19:03.964Z,19.39
2022-12-26T10:20:04.555Z,19.27
2022-12-26T10:21:05.162Z,19.39
2022-12-26T10:22:05.753Z,19.29
2022-12-26T10:23:06.356Z,19.31
2022-12-26T10:24:06.952Z,19.37
2022-12-26T10:25:07.551Z,19.40
2022-12-26T10:26:08.145Z,19.36
2022-12-26T10:27:08.745Z,19.39
2022-12-26T10:28:09.334Z,19.37
2022-12-26T10:29:09.938Z,19.37
2022-12-26T10:30:10.529Z,19.37
2022-12-26T10:31:11.156Z,19.40
2022-12-26T10:32:12.243Z,19.41
2022-12-26T10:33:12.844Z,19.34
2022-12-26T10:34:13.438Z,19.41
2022-12-26T10:35:14.038Z,19.34
2022-12-26T10:36:14.632Z,19.40
2022-12-26T10:37:15.233Z,19.41
2022-12-26T10:38:15.834Z,19.45
2022-12-26T10:39:16.442Z,19.44
2022-12-26T10:40:17.029Z,19.36
2022-12-26T10:41:17.635Z,19.48
2022-12-26T10:42:18.224Z,19.44
2022-12-26T10:43:18.826Z,19.44
2022-12-26T10:44:22.496Z,19.41
2022-12-26T10:45:21.024Z,19.41
2022-12-26T10:46:21.815Z,19.37
2022-12-26T10:47:22.457Z,19.39
2022-12-26T10:48:23.123Z,19.41
2022-12-26T10:49:23.725Z,19.37
2022-12-26T10:50:27.616Z,19.41
2022-12-26T10:51:25.916Z,19.37
2022-12-26T10:52:26.558Z,19.45
2022-12-26T10:53:27.161Z,19.44
2022-12-26T10:54:27.763Z,19.45
2022-12-26T10:55:31.397Z,19.45
2022-12-26T10:56:29.075Z,19.37
2022-12-26T10:57:29.668Z,19.39
2022-12-26T10:58:30.264Z,19.47
2022-12-26T10:59:31.030Z,19.41
2022-12-26T11:00:31.670Z,19.40
2022-12-26T11:01:32.419Z,19.45
2022-12-26T11:02:33.296Z,19.39
2022-12-26T11:03:34.151Z,19.40
2022-12-26T11:05:10.517Z,19.44
2022-12-26T11:06:37.919Z,19.41
2022-12-26T11:07:38.520Z,19.41
2022-12-26T11:08:44.187Z,19.37
2022-12-26T11:09:40.713Z,19.45
2022-12-26T11:10:41.303Z,19.44
2022-12-26T11:11:42.210Z,19.45
2022-12-26T11:12:42.805Z,19.40
2022-12-26T11:13:43.409Z,19.44
2022-12-26T11:14:44.001Z,19.45
2022-12-26T11:15:44.653Z,19.47
2022-12-26T11:16:45.249Z,19.47
2022-12-26T11:17:45.848Z,19.44
2022-12-26T11:18:46.441Z,19.44
2022-12-26T11:19:47.059Z,19.49
2022-12-26T11:20:47.656Z,19.47
2022-12-26T11:21:48.262Z,19.44
2022-12-26T11:22:48.856Z,19.48
2022-12-26T11:23:49.461Z,19.44
2022-12-26T11:24:50.057Z,19.47
2022-12-26T11:25:50.661Z,19.41
2022-12-26T11:26:51.260Z,19.45
2022-12-26T11:27:51.865Z,19.47
2022-12-26T11:28:52.455Z,19.41
2022-12-26T11:29:53.046Z,19.47
2022-12-26T11:30:53.695Z,19.49
2022-12-26T11:31:54.321Z,19.48
2022-12-26T11:32:54.908Z,19.45
2022-12-26T11:33:55.499Z,19.44
2022-12-26T11:34:56.107Z,19.44
2022-12-26T11:35:56.998Z,19.45
2022-12-26T11:36:57.599Z,19.45
2022-12-26T11:37:58.203Z,19.44
2022-12-26T11:38:58.804Z,19.44
2022-12-26T11:39:59.388Z,19.44
2022-12-26T11:40:59.996Z,19.41
2022-12-26T11:42:01.546Z,19.41
2022-12-26T11:43:02.152Z,19.47
2022-12-26T11:44:02.775Z,19.47
2022-12-26T11:45:03.370Z,19.47
2022-12-26T11:46:04.049Z,19.44
2022-12-26T11:47:04.637Z,19.47
2022-12-26T11:48:05.229Z,19.48
2022-12-26T11:49:05.839Z,19.45
2022-12-26T11:50:06.417Z,19.45
2022-12-26T11:51:07.020Z,19.44
2022-12-26T11:52:07.625Z,19.45
2022-12-26T11:53:09.068Z,19.48
2022-12-26T11:54:09.660Z,19.44
2022-12-26T11:55:10.262Z,19.41
2022-12-26T11:56:10.855Z,19.45
2022-12-26T11:57:12.407Z,19.41
2022-12-26T11:58:12.999Z,19.49
2022-12-26T11:59:13.610Z,19.41
2022-12-26T12:00:14.313Z,19.45
2022-12-26T12:01:14.968Z,19.49
2022-12-26T12:02:15.619Z,19.45
2022-12-26T12:03:16.316Z,19.47
2022-12-26T12:04:17.773Z,19.45
2022-12-26T12:05:18.377Z,19.47
2022-12-26T12:06:18.972Z,19.47
2022-12-26T12:07:19.646Z,19.47
2022-12-26T12:08:20.229Z,19.40
2022-12-26T12:09:21.695Z,19.47
2022-12-26T12:10:22.275Z,19.44
2022-12-26T12:11:22.874Z,19.48
2022-12-26T12:12:23.471Z,19.45
2022-12-26T12:13:24.087Z,19.40
2022-12-26T12:14:24.672Z,19.47
2022-12-26T12:15:26.090Z,19.44
2022-12-26T12:16:27.532Z,19.45
2022-12-26T12:17:28.126Z,19.36
2022-12-26T12:18:28.718Z,19.44
2022-12-26T12:19:29.322Z,19.41
2022-12-26T12:20:29.924Z,19.44
2022-12-26T12:21:30.522Z,19.41
2022-12-26T12:22:31.183Z,19.45
2022-12-26T12:23:31.795Z,19.45
2022-12-26T12:24:32.460Z,19.40
2022-12-26T12:25:33.055Z,19.40
2022-12-26T12:26:33.646Z,19.40
2022-12-26T12:27:34.258Z,19.45
2022-12-26T12:28:34.842Z,19.48
2022-12-26T12:29:35.442Z,19.47
2022-12-26T12:30:36.937Z,19.44
2022-12-26T12:31:37.741Z,19.41
2022-12-26T12:32:38.380Z,19.47
2022-12-26T12:33:39.030Z,19.44
2022-12-26T12:34:39.624Z,19.47
2022-12-26T12:35:40.224Z,19.41
2022-12-26T12:36:40.816Z,19.47
2022-12-26T12:37:41.474Z,19.48
2022-12-26T12:38:42.100Z,19.44
2022-12-26T12:39:42.708Z,19.44
2022-12-26T12:40:44.099Z,19.44
2022-12-26T12:41:44.760Z,19.48
2022-12-26T12:42:45.356Z,19.44
2022-12-26T12:43:45.956Z,19.41
2022-12-26T12:44:49.332Z,19.45
2022-12-26T12:45:48.213Z,19.45
2022-12-26T12:46:48.828Z,19.45
2022-12-26T12:47:49.429Z,19.48
2022-12-26T12:48:50.029Z,19.47
2022-12-26T12:49:50.627Z,19.44
2022-12-26T12:50:56.630Z,19.44
2022-12-26T12:51:52.813Z,19.48
2022-12-26T12:52:53.405Z,19.47
2022-12-26T12:53:54.012Z,19.49
2022-12-26T12:54:54.607Z,19.48
2022-12-26T12:55:55.209Z,19.55
2022-12-26T12:56:55.804Z,19.41
2022-12-26T12:57:56.409Z,19.48
2022-12-26T12:58:57.071Z,19.49
2022-12-26T12:59:57.675Z,19.47
2022-12-26T13:00:58.303Z,19.47
2022-12-26T13:02:01.560Z,19.52
2022-12-26T13:03:00.677Z,19.47